createdAt,value
2023-05-23T00:00:25.456Z,90.00
2023-05-23T00:02:54.254Z,90.10
2023-05-23T00:05:22.990Z,90.10
2023-05-23T00:07:51.294Z,90.20
2023-05-23T00:10:20.124Z,90.20
2023-05-23T00:12:49.884Z,90.30
2023-05-23T00:15:18.140Z,90.30
2023-05-23T00:17:47.100Z,90.40
2023-05-23T00:20:16.190Z,90.80
2023-05-23T00:22:44.566Z,90.50
2023-05-23T00:25:13.145Z,90.60
2023-05-23T00:27:41.499Z,90.60
2023-05-23T00:30:12.247Z,90.70
2023-05-23T00:32:40.588Z,90.70
2023-05-23T00:35:10.522Z,90.70
2023-05-23T00:37:38.709Z,90.70
2023-05-23T00:40:08.447Z,90.80
2023-05-23T00:42:36.697Z,90.80
2023-05-23T00:45:05.425Z,90.80
2023-05-23T00:47:35.254Z,90.80
2023-05-23T00:50:03.725Z,90.90
2023-05-23T00:52:32.405Z,91.00
2023-05-23T00:55:00.944Z,91.10
2023-05-23T00:57:29.706Z,91.30
2023-05-23T00:59:58.228Z,91.30
2023-05-23T01:02:27.938Z,91.20
2023-05-23T01:04:58.340Z,91.70
2023-05-23T01:07:26.784Z,91.40
2023-05-23T01:09:55.250Z,91.30
2023-05-23T01:12:32.703Z,91.40
2023-05-23T01:15:08.859Z,91.50
2023-05-23T01:17:45.400Z,91.50
2023-05-23T01:20:20.866Z,91.50
2023-05-23T01:23:06.960Z,91.50
2023-05-23T01:25:48.219Z,91.60
2023-05-23T01:28:20.674Z,91.50
2023-05-23T01:30:52.898Z,91.50
2023-05-23T01:33:22.938Z,91.60
2023-05-23T01:35:51.528Z,91.60
2023-05-23T01:38:19.830Z,91.60
2023-05-23T01:40:48.108Z,91.60
2023-05-23T01:43:18.134Z,91.70
2023-05-23T01:45:46.529Z,91.70
2023-05-23T01:48:16.206Z,91.70
2023-05-23T01:50:46.516Z,91.70
2023-05-23T01:53:17.092Z,91.70
2023-05-23T01:55:46.771Z,91.80
2023-05-23T01:58:15.450Z,91.80
2023-05-23T02:00:45.416Z,91.80
2023-05-23T02:03:13.983Z,91.90
2023-05-23T02:05:42.609Z,91.90
2023-05-23T02:08:11.083Z,91.90
2023-05-23T02:10:39.534Z,92.20
2023-05-23T02:13:07.917Z,92.00
2023-05-23T02:15:36.234Z,92.10
2023-05-23T02:18:06.720Z,92.10
2023-05-23T02:20:35.344Z,92.10
2023-05-23T02:23:03.662Z,92.10
2023-05-23T02:25:31.891Z,92.10
2023-05-23T02:28:00.472Z,92.10
2023-05-23T02:30:28.873Z,92.10
2023-05-23T02:32:58.215Z,92.10
2023-05-23T02:35:27.922Z,92.20
2023-05-23T02:37:56.362Z,92.20
2023-05-23T02:40:24.840Z,92.20
2023-05-23T02:42:53.253Z,92.20
2023-05-23T02:45:21.629Z,92.20
2023-05-23T02:47:50.033Z,92.20
2023-05-23T02:50:18.493Z,92.20
2023-05-23T02:52:49.360Z,92.30
2023-05-23T02:55:17.661Z,92.30
2023-05-23T02:57:46.001Z,92.20
2023-05-23T03:00:15.869Z,92.20
2023-05-23T03:02:44.328Z,92.20
2023-05-23T03:05:12.752Z,92.20
2023-05-23T03:07:41.228Z,92.10
2023-05-23T03:10:11.997Z,92.00
2023-05-23T03:12:40.939Z,92.20
2023-05-23T03:15:10.137Z,92.20
2023-05-23T03:17:38.696Z,92.20
2023-05-23T03:20:09.867Z,92.20
2023-05-23T03:22:38.314Z,92.30
2023-05-23T03:25:07.832Z,92.50
2023-05-23T03:27:37.562Z,92.70
2023-05-23T03:30:06.713Z,92.70
2023-05-23T03:32:35.159Z,92.90
2023-05-23T03:35:03.571Z,93.10
2023-05-23T03:37:32.028Z,93.30
2023-05-23T03:40:00.492Z,93.20
2023-05-23T03:42:29.873Z,93.30
2023-05-23T03:44:59.768Z,93.40
2023-05-23T03:47:28.167Z,93.40
2023-05-23T03:49:56.846Z,93.40
2023-05-23T03:52:25.333Z,93.50
2023-05-23T03:54:53.895Z,93.40
2023-05-23T03:57:23.006Z,93.40
2023-05-23T03:59:51.455Z,93.40
2023-05-23T04:02:22.079Z,93.40
2023-05-23T04:04:51.744Z,93.40
2023-05-23T04:07:19.983Z,93.30
2023-05-23T04:09:48.314Z,93.30
2023-05-23T04:12:16.739Z,93.30
2023-05-23T04:14:45.057Z,93.40
2023-05-23T04:17:13.599Z,93.50
2023-05-23T04:19:43.384Z,93.40
2023-05-23T04:22:11.837Z,93.40
2023-05-23T04:24:40.117Z,93.40
2023-05-23T04:27:08.661Z,93.30
2023-05-23T04:29:38.331Z,93.40
2023-05-23T04:32:08.157Z,93.40
2023-05-23T04:34:38.178Z,93.40
2023-05-23T04:37:09.722Z,93.40
2023-05-23T04:39:39.735Z,93.50
2023-05-23T04:42:08.567Z,93.50
2023-05-23T04:44:37.521Z,93.50
2023-05-23T04:47:09.059Z,93.70
2023-05-23T04:49:38.573Z,93.60
2023-05-23T04:52:08.305Z,93.60
2023-05-23T04:54:37.482Z,93.70
2023-05-23T04:57:06.323Z,93.80
2023-05-23T04:59:34.526Z,93.70
2023-05-23T05:02:02.881Z,93.80
2023-05-23T05:04:31.160Z,93.90
2023-05-23T05:06:59.453Z,93.80
2023-05-23T05:09:29.101Z,93.90
2023-05-23T05:11:57.310Z,93.90
2023-05-23T05:14:27.867Z,93.80
2023-05-23T05:16:57.832Z,93.80
2023-05-23T05:19:26.343Z,93.90
2023-05-23T05:21:54.596Z,93.70
2023-05-23T05:24:22.903Z,93.80
2023-05-23T05:26:52.554Z,93.70
2023-05-23T05:29:20.962Z,93.80
2023-05-23T05:31:49.266Z,93.80
2023-05-23T05:34:17.873Z,93.80
2023-05-23T05:36:48.114Z,93.90
2023-05-23T05:39:17.012Z,94.00
2023-05-23T05:41:45.258Z,94.10
2023-05-23T05:44:14.882Z,94.30
2023-05-23T05:46:43.206Z,94.30
2023-05-23T05:49:12.459Z,94.30
2023-05-23T05:51:40.993Z,94.40
2023-05-23T05:54:09.668Z,94.40
2023-05-23T05:56:37.837Z,94.40
2023-05-23T05:59:06.173Z,94.40
2023-05-23T06:01:36.277Z,94.20
2023-05-23T06:04:05.010Z,94.30
2023-05-23T06:06:33.427Z,94.30
2023-05-23T06:09:01.715Z,94.40
2023-05-23T06:11:30.018Z,94.70
2023-05-23T06:13:58.213Z,94.90
2023-05-23T06:16:26.756Z,95.10
2023-05-23T06:18:56.473Z,95.30
2023-05-23T06:21:24.938Z,95.50
2023-05-23T06:23:53.362Z,95.60
2023-05-23T06:26:21.707Z,95.70
2023-05-23T06:28:49.918Z,96.00
2023-05-23T06:31:18.231Z,96.00
2023-05-23T06:33:46.517Z,96.10
2023-05-23T06:36:16.257Z,95.90
2023-05-23T06:38:44.559Z,95.70
2023-05-23T06:41:12.856Z,95.60
2023-05-23T06:43:41.079Z,95.10
2023-05-23T06:46:09.368Z,95.00
2023-05-23T06:48:37.716Z,94.20
2023-05-23T06:51:06.191Z,93.90
2023-05-23T06:53:35.925Z,93.60
2023-05-23T06:56:04.142Z,93.30
2023-05-23T06:58:32.374Z,92.80
2023-05-23T07:01:00.747Z,93.00
2023-05-23T07:03:29.111Z,92.80
2023-05-23T07:05:57.419Z,92.90
2023-05-23T07:08:25.748Z,92.90
2023-05-23T07:10:55.468Z,92.80
2023-05-23T07:13:23.821Z,93.00
2023-05-23T07:15:52.023Z,92.90
2023-05-23T07:18:20.395Z,93.40
2023-05-23T07:20:48.751Z,93.60
2023-05-23T07:23:17.325Z,93.10
2023-05-23T07:26:01.186Z,92.90
2023-05-23T07:28:32.527Z,92.90
2023-05-23T07:31:00.801Z,92.60
2023-05-23T07:33:29.774Z,92.90
2023-05-23T07:35:58.114Z,92.40
2023-05-23T07:38:28.095Z,92.50
2023-05-23T07:41:07.288Z,92.30
2023-05-23T07:43:41.406Z,91.80
2023-05-23T07:46:09.704Z,91.60
2023-05-23T07:48:37.930Z,91.10
2023-05-23T07:51:06.202Z,91.00
2023-05-23T07:53:35.024Z,91.40
2023-05-23T07:56:03.307Z,91.60
2023-05-23T07:58:31.527Z,92.00
2023-05-23T08:01:01.119Z,92.00
2023-05-23T08:03:29.253Z,92.20
2023-05-23T08:05:57.485Z,92.50
2023-05-23T08:08:25.641Z,92.30
2023-05-23T08:10:53.815Z,92.10
2023-05-23T08:13:22.013Z,92.40
2023-05-23T08:15:50.261Z,92.00
2023-05-23T08:18:19.918Z,91.30
2023-05-23T08:20:48.114Z,90.30
2023-05-23T08:23:18.291Z,90.50
2023-05-23T08:25:46.419Z,89.80
2023-05-23T08:28:14.566Z,90.00
2023-05-23T08:30:43.067Z,89.20
2023-05-23T08:33:11.586Z,89.00
2023-05-23T08:35:41.684Z,88.40
2023-05-23T08:38:10.894Z,87.30
2023-05-23T08:40:40.606Z,86.70
2023-05-23T08:43:10.412Z,89.10
2023-05-23T08:45:39.904Z,90.20
2023-05-23T08:48:11.866Z,90.80
2023-05-23T08:50:44.083Z,91.20
2023-05-23T08:53:20.513Z,91.60
2023-05-23T08:55:51.179Z,92.10
2023-05-23T08:58:21.119Z,92.80
2023-05-23T09:00:50.167Z,93.50
2023-05-23T09:03:19.996Z,94.10
2023-05-23T09:05:50.839Z,94.10
2023-05-23T09:08:20.210Z,94.30
2023-05-23T09:10:49.862Z,94.30
2023-05-23T09:13:20.484Z,94.70
2023-05-23T09:16:04.811Z,94.10
2023-05-23T09:18:37.054Z,94.10
2023-05-23T09:21:07.248Z,94.80
2023-05-23T09:23:36.512Z,94.20
2023-05-23T09:26:05.702Z,94.30
2023-05-23T09:28:35.269Z,94.20
2023-05-23T09:31:04.320Z,94.30
2023-05-23T09:33:41.311Z,94.10
2023-05-23T09:36:11.121Z,94.40
2023-05-23T09:38:40.353Z,94.70
2023-05-23T09:41:09.194Z,94.90
2023-05-23T09:43:39.121Z,95.30
2023-05-23T09:46:09.737Z,95.80
2023-05-23T09:48:38.759Z,95.40
2023-05-23T09:51:07.708Z,95.70
2023-05-23T09:53:37.898Z,96.40
2023-05-23T09:56:06.678Z,96.60
2023-05-23T09:58:36.285Z,96.90
2023-05-23T10:01:05.012Z,97.00
2023-05-23T10:03:36.451Z,96.90
2023-05-23T10:06:11.812Z,96.90
2023-05-23T10:08:45.187Z,97.00
2023-05-23T10:11:52.227Z,97.10
2023-05-23T10:14:20.689Z,97.00
2023-05-23T10:17:00.942Z,97.60
2023-05-23T10:19:37.338Z,97.50
2023-05-23T10:22:10.022Z,97.80
2023-05-23T10:24:40.017Z,97.70
2023-05-23T10:27:08.776Z,97.90
2023-05-23T10:29:37.708Z,98.50
2023-05-23T10:32:08.023Z,99.00
2023-05-23T10:34:42.198Z,99.40
2023-05-23T10:37:19.244Z,99.90
2023-05-23T10:39:57.093Z,99.90
2023-05-23T10:42:44.471Z,99.90
2023-05-23T10:45:16.640Z,99.90
2023-05-23T10:47:45.303Z,99.90
2023-05-23T10:50:17.993Z,99.90
2023-05-23T10:52:46.269Z,99.90
2023-05-23T10:55:17.904Z,99.90
2023-05-23T10:57:46.790Z,99.90
2023-05-23T11:00:17.081Z,99.90
2023-05-23T11:03:02.004Z,99.90
2023-05-23T11:05:31.971Z,99.90
2023-05-23T11:08:11.003Z,99.90
2023-05-23T11:11:00.709Z,99.90
2023-05-23T11:14:00.084Z,99.90
2023-05-23T11:16:29.992Z,99.90
2023-05-23T11:19:25.623Z,99.90
2023-05-23T11:21:59.896Z,99.90
2023-05-23T11:24:49.941Z,99.90
2023-05-23T11:27:26.819Z,99.90
2023-05-23T11:30:03.609Z,99.90
2023-05-23T11:32:32.537Z,99.90
2023-05-23T11:35:02.222Z,99.90
2023-05-23T11:37:31.398Z,99.90
2023-05-23T11:40:00.219Z,99.90
2023-05-23T11:42:29.880Z,99.90
2023-05-23T11:44:58.184Z,99.90
2023-05-23T11:47:26.546Z,99.90
2023-05-23T11:49:54.779Z,99.90
2023-05-23T11:52:23.272Z,99.90
2023-05-23T11:54:52.988Z,99.90
2023-05-23T11:57:23.128Z,99.90
2023-05-23T11:59:53.423Z,99.90
2023-05-23T12:02:23.727Z,99.90
2023-05-23T12:04:52.804Z,99.90
2023-05-23T12:07:21.536Z,99.90
2023-05-23T12:09:50.301Z,99.90
2023-05-23T12:12:20.602Z,99.90
2023-05-23T12:14:49.098Z,99.90
2023-05-23T12:17:19.403Z,99.90
2023-05-23T12:19:48.146Z,99.90
2023-05-23T12:22:16.718Z,99.90
2023-05-23T12:24:48.532Z,99.90
2023-05-23T12:27:18.937Z,99.90
2023-05-23T12:29:52.957Z,99.90
2023-05-23T12:32:26.692Z,99.90
2023-05-23T12:34:55.244Z,99.90
2023-05-23T12:37:24.541Z,99.90
2023-05-23T12:39:53.289Z,99.90
2023-05-23T12:42:21.850Z,99.90
2023-05-23T12:44:53.575Z,99.90
2023-05-23T12:47:23.583Z,99.90
2023-05-23T12:49:52.418Z,99.90
2023-05-23T12:52:21.240Z,99.90
2023-05-23T12:54:49.824Z,99.90
2023-05-23T12:57:18.365Z,99.90
2023-05-23T12:59:46.984Z,99.90
2023-05-23T13:02:15.620Z,99.90
2023-05-23T13:04:45.796Z,99.90
2023-05-23T13:07:14.190Z,99.90
2023-05-23T13:09:42.838Z,99.90
2023-05-23T13:12:12.651Z,99.90
2023-05-23T13:14:41.319Z,99.90
2023-05-23T13:17:10.073Z,99.90
2023-05-23T13:19:39.427Z,99.90
2023-05-23T13:22:10.717Z,99.90
2023-05-23T13:24:39.591Z,99.90
2023-05-23T13:27:08.752Z,99.90
2023-05-23T13:29:37.384Z,99.90
2023-05-23T13:32:06.494Z,99.90
2023-05-23T13:34:37.668Z,99.90
2023-05-23T13:37:06.915Z,99.90
2023-05-23T13:39:36.965Z,99.90
2023-05-23T13:42:05.616Z,99.90
2023-05-23T13:44:34.030Z,99.90
2023-05-23T13:47:13.279Z,99.90
2023-05-23T13:49:42.032Z,99.90
2023-05-23T13:52:10.652Z,99.90
2023-05-23T13:54:41.580Z,99.90
2023-05-23T13:57:10.020Z,99.90
2023-05-23T13:59:38.410Z,99.90
2023-05-23T14:02:08.253Z,99.90
2023-05-23T14:04:36.867Z,99.90
2023-05-23T14:07:05.367Z,99.90
2023-05-23T14:09:33.728Z,99.90
2023-05-23T14:12:03.387Z,99.90
2023-05-23T14:14:31.773Z,99.90
2023-05-23T14:16:59.990Z,99.90
2023-05-23T14:19:28.307Z,99.90
2023-05-23T14:21:56.722Z,99.90
2023-05-23T14:24:24.969Z,99.90
2023-05-23T14:26:53.280Z,99.90
2023-05-23T14:29:23.005Z,99.90
2023-05-23T14:31:51.345Z,99.90
2023-05-23T14:34:19.621Z,99.90
2023-05-23T14:36:48.078Z,99.90
2023-05-23T14:39:16.859Z,99.90
2023-05-23T14:41:46.852Z,99.90
2023-05-23T14:44:15.115Z,99.90
2023-05-23T14:46:48.570Z,99.90
2023-05-23T14:49:17.116Z,99.90
2023-05-23T14:51:50.406Z,99.90
2023-05-23T14:54:20.672Z,99.90
2023-05-23T14:56:51.172Z,99.90
2023-05-23T14:59:21.825Z,99.90
2023-05-23T15:01:51.830Z,99.90
2023-05-23T15:04:20.513Z,99.90
2023-05-23T15:06:48.904Z,99.90
2023-05-23T15:09:18.032Z,99.90
2023-05-23T15:11:49.388Z,99.90
2023-05-23T15:14:17.747Z,99.90
2023-05-23T15:16:48.750Z,99.90
2023-05-23T15:19:18.661Z,99.90
2023-05-23T15:21:51.056Z,99.90
2023-05-23T15:24:20.798Z,99.90
2023-05-23T15:26:49.091Z,99.90
2023-05-23T15:29:18.290Z,99.90
2023-05-23T15:31:46.698Z,99.90
2023-05-23T15:34:15.050Z,99.90
2023-05-23T15:36:44.864Z,99.90
2023-05-23T15:39:13.213Z,99.90
2023-05-23T15:41:41.892Z,99.90
2023-05-23T15:44:12.608Z,99.90
2023-05-23T15:46:42.422Z,99.90
2023-05-23T15:49:21.655Z,99.90
2023-05-23T15:51:56.109Z,99.90
2023-05-23T15:54:24.459Z,99.90
2023-05-23T15:56:52.691Z,99.90
2023-05-23T15:59:21.170Z,99.90
2023-05-23T16:01:49.612Z,99.90
2023-05-23T16:04:18.028Z,99.90
2023-05-23T16:06:46.369Z,99.90
2023-05-23T16:09:15.944Z,99.90
2023-05-23T16:11:44.341Z,99.90
2023-05-23T16:14:12.622Z,99.90
2023-05-23T16:16:40.971Z,99.90
2023-05-23T16:19:09.389Z,99.90
2023-05-23T16:21:37.938Z,99.90
2023-05-23T16:24:07.033Z,99.90
2023-05-23T16:26:36.694Z,99.90
2023-05-23T16:29:04.985Z,99.90
2023-05-23T16:31:33.259Z,99.90
2023-05-23T16:34:01.843Z,99.90
2023-05-23T16:36:30.083Z,99.90
2023-05-23T16:38:58.467Z,99.90
2023-05-23T16:41:26.808Z,99.90
2023-05-23T16:43:56.388Z,99.90
2023-05-23T16:46:24.692Z,99.90
2023-05-23T16:48:52.953Z,99.90
2023-05-23T16:51:21.211Z,99.90
2023-05-23T16:53:49.508Z,99.90
2023-05-23T16:56:17.761Z,99.90
2023-05-23T16:58:46.015Z,99.90
2023-05-23T17:01:16.912Z,99.90
2023-05-23T17:03:45.297Z,99.90
2023-05-23T17:06:13.657Z,99.90
2023-05-23T17:08:42.093Z,99.90
2023-05-23T17:11:10.470Z,99.90
2023-05-23T17:13:38.749Z,99.90
2023-05-23T17:16:07.067Z,99.90
2023-05-23T17:18:36.852Z,99.90
2023-05-23T17:21:05.149Z,99.90
2023-05-23T17:23:33.311Z,99.90
2023-05-23T17:26:01.557Z,99.90
2023-05-23T17:28:30.368Z,99.90
2023-05-23T17:30:58.819Z,99.90
2023-05-23T17:33:27.171Z,99.90
2023-05-23T17:35:57.094Z,99.90
2023-05-23T17:38:25.621Z,99.90
2023-05-23T17:40:54.096Z,99.90
2023-05-23T17:43:22.394Z,99.90
2023-05-23T17:45:50.819Z,99.90
2023-05-23T17:48:19.029Z,99.90
2023-05-23T17:50:47.253Z,99.90
2023-05-23T17:53:16.957Z,99.90
2023-05-23T17:55:45.326Z,99.90
2023-05-23T17:58:13.728Z,99.90
2023-05-23T18:00:42.622Z,99.90
2023-05-23T18:03:11.316Z,99.90
2023-05-23T18:05:39.903Z,99.90
2023-05-23T18:08:08.329Z,99.90
2023-05-23T18:10:37.983Z,99.90
2023-05-23T18:13:06.201Z,99.90
2023-05-23T18:15:34.554Z,99.90
2023-05-23T18:18:02.841Z,99.90
2023-05-23T18:20:31.114Z,99.90
2023-05-23T18:22:59.354Z,99.90
2023-05-23T18:25:28.396Z,99.90
2023-05-23T18:27:59.852Z,99.90
2023-05-23T18:30:28.684Z,99.90
2023-05-23T18:32:57.189Z,99.90
2023-05-23T18:35:26.178Z,99.90
2023-05-23T18:37:55.156Z,99.90
2023-05-23T18:40:24.266Z,99.90
2023-05-23T18:42:52.745Z,99.90
2023-05-23T18:45:22.486Z,99.90
2023-05-23T18:47:51.248Z,99.90
2023-05-23T18:50:20.373Z,99.90
2023-05-23T18:52:48.752Z,99.90
2023-05-23T18:55:17.588Z,99.90
2023-05-23T18:57:45.884Z,99.90
2023-05-23T19:00:15.035Z,99.90
2023-05-23T19:02:45.787Z,99.90
2023-05-23T19:05:14.329Z,99.90
2023-05-23T19:07:42.594Z,99.90
2023-05-23T19:10:11.732Z,99.90
2023-05-23T19:12:40.832Z,99.90
2023-05-23T19:15:11.412Z,99.90
2023-05-23T19:17:39.824Z,99.90
2023-05-23T19:20:10.344Z,99.90
2023-05-23T19:22:50.742Z,99.90
2023-05-23T19:25:19.859Z,99.90
2023-05-23T19:27:48.168Z,99.90
2023-05-23T19:30:16.722Z,99.90
2023-05-23T19:32:45.063Z,99.90
2023-05-23T19:35:16.845Z,99.90
2023-05-23T19:37:45.399Z,99.90
2023-05-23T19:40:14.649Z,99.90
2023-05-23T19:42:42.848Z,99.90
2023-05-23T19:45:12.276Z,99.90
2023-05-23T19:47:40.927Z,99.90
2023-05-23T19:50:12.746Z,99.90
2023-05-23T19:52:43.031Z,99.90
2023-05-23T19:55:11.819Z,99.90
2023-05-23T19:57:40.319Z,99.90
2023-05-23T20:00:14.849Z,99.90
2023-05-23T20:02:44.664Z,99.90
2023-05-23T20:05:13.169Z,99.90
2023-05-23T20:07:43.152Z,99.90
2023-05-23T20:10:12.163Z,99.90
2023-05-23T20:12:40.870Z,99.90
2023-05-23T20:15:10.226Z,99.90
2023-05-23T20:17:38.953Z,99.90
2023-05-23T20:20:08.901Z,99.90
2023-05-23T20:22:37.433Z,99.90
2023-05-23T20:25:08.476Z,99.90
2023-05-23T20:27:36.856Z,99.90
2023-05-23T20:30:06.279Z,99.90
2023-05-23T20:32:34.967Z,99.90
2023-05-23T20:35:03.694Z,99.90
2023-05-23T20:37:32.080Z,99.90
2023-05-23T20:40:00.667Z,99.90
2023-05-23T20:42:31.939Z,99.90
2023-05-23T20:45:00.470Z,99.90
2023-05-23T20:47:29.005Z,99.90
2023-05-23T20:49:58.225Z,99.90
2023-05-23T20:52:26.968Z,99.90
2023-05-23T20:54:55.703Z,99.90
2023-05-23T20:57:23.992Z,99.90
2023-05-23T20:59:54.311Z,99.90
2023-05-23T21:02:22.974Z,99.90
2023-05-23T21:04:51.386Z,99.90
2023-05-23T21:07:19.912Z,99.90
2023-05-23T21:09:48.338Z,99.90
2023-05-23T21:12:16.795Z,99.90
2023-05-23T21:14:45.261Z,99.90
2023-05-23T21:17:16.035Z,99.90
2023-05-23T21:19:44.709Z,99.90
2023-05-23T21:22:13.198Z,99.90
2023-05-23T21:24:41.998Z,99.90
2023-05-23T21:27:10.745Z,99.90
2023-05-23T21:29:39.077Z,99.90
2023-05-23T21:32:07.657Z,99.90
2023-05-23T21:34:37.631Z,99.90
2023-05-23T21:37:06.268Z,99.90
2023-05-23T21:39:50.005Z,99.90
2023-05-23T21:42:20.705Z,99.90
2023-05-23T21:44:49.406Z,99.90
2023-05-23T21:47:17.690Z,99.90
2023-05-23T21:49:47.582Z,99.90
2023-05-23T21:52:15.944Z,99.90
2023-05-23T21:54:47.140Z,99.90
2023-05-23T21:57:15.856Z,99.90
2023-05-23T21:59:44.502Z,99.90
2023-05-23T22:02:13.037Z,99.90
2023-05-23T22:04:41.654Z,99.90
2023-05-23T22:07:11.528Z,99.90
2023-05-23T22:09:40.112Z,99.90
2023-05-23T22:12:09.051Z,99.90
2023-05-23T22:14:37.604Z,99.90
2023-05-23T22:17:06.342Z,99.90
2023-05-23T22:19:34.976Z,99.90
2023-05-23T22:22:03.775Z,99.90
2023-05-23T22:24:34.939Z,99.90
2023-05-23T22:27:04.311Z,99.90
2023-05-23T22:29:36.217Z,99.90
2023-05-23T22:32:05.001Z,99.90
2023-05-23T22:34:33.863Z,99.90
2023-05-23T22:37:02.507Z,99.90
2023-05-23T22:39:30.976Z,99.90
2023-05-23T22:42:01.047Z,99.90
2023-05-23T22:44:29.641Z,99.90
2023-05-23T22:46:59.846Z,99.90
2023-05-23T22:49:30.233Z,99.90
2023-05-23T22:51:59.434Z,99.90
2023-05-23T22:54:28.214Z,99.90
2023-05-23T22:56:56.712Z,99.90
2023-05-23T22:59:26.779Z,99.90
2023-05-23T23:01:55.384Z,99.90
2023-05-23T23:04:25.632Z,99.90
2023-05-23T23:06:54.928Z,99.90
2023-05-23T23:09:23.439Z,99.90
2023-05-23T23:11:52.040Z,99.90
2023-05-23T23:14:21.386Z,99.90
2023-05-23T23:16:51.352Z,99.90
2023-05-23T23:19:19.907Z,99.90
2023-05-23T23:21:48.774Z,99.90
2023-05-23T23:24:17.886Z,99.90
2023-05-23T23:26:46.415Z,99.90
2023-05-23T23:29:14.837Z,99.90
2023-05-23T23:31:43.545Z,99.90
2023-05-23T23:34:13.494Z,99.90
2023-05-23T23:36:41.845Z,99.90
2023-05-23T23:39:10.203Z,99.90
2023-05-23T23:41:38.647Z,99.90
2023-05-23T23:44:06.868Z,99.90
2023-05-23T23:46:35.268Z,99.90
2023-05-23T23:49:03.711Z,99.90
2023-05-23T23:51:33.403Z,99.90
2023-05-23T23:54:01.612Z,99.90
2023-05-23T23:56:29.867Z,99.90
2023-05-23T23:58:58.001Z,99.90
